sensor_id;sensor_type;location;lat;lon;timestamp;P1;durP1;ratioP1;P2;durP2;ratioP2
74912;SDS011;63878;55.624;37.304;2023-05-31T00:08:27;3.27;;;2.00;;
74912;SDS011;63878;55.624;37.304;2023-05-31T00:18:28;3.42;;;2.90;;
74912;SDS011;63878;55.624;37.304;2023-05-31T00:28:28;5.23;;;2.57;;
74912;SDS011;63878;55.624;37.304;2023-05-31T00:38:29;7.07;;;2.67;;
74912;SDS011;63878;55.624;37.304;2023-05-31T00:48:29;3.10;;;1.90;;
74912;SDS011;63878;55.624;37.304;2023-05-31T00:58:30;5.78;;;2.10;;
74912;SDS011;63878;55.624;37.304;2023-05-31T01:08:32;4.63;;;2.38;;
74912;SDS011;63878;55.624;37.304;2023-05-31T01:18:57;7.85;;;3.08;;
74912;SDS011;63878;55.624;37.304;2023-05-31T01:29:01;2.60;;;2.03;;
74912;SDS011;63878;55.624;37.304;2023-05-31T01:39:05;4.32;;;2.10;;
74912;SDS011;63878;55.624;37.304;2023-05-31T01:49:08;4.15;;;1.70;;
74912;SDS011;63878;55.624;37.304;2023-05-31T01:59:10;3.53;;;2.00;;
74912;SDS011;63878;55.624;37.304;2023-05-31T02:09:11;4.53;;;1.88;;
74912;SDS011;63878;55.624;37.304;2023-05-31T02:19:12;3.33;;;2.47;;
74912;SDS011;63878;55.624;37.304;2023-05-31T02:29:12;6.90;;;2.20;;
74912;SDS011;63878;55.624;37.304;2023-05-31T02:39:13;2.23;;;1.47;;
74912;SDS011;63878;55.624;37.304;2023-05-31T02:49:13;2.63;;;2.17;;
74912;SDS011;63878;55.624;37.304;2023-05-31T02:59:14;2.13;;;1.83;;
74912;SDS011;63878;55.624;37.304;2023-05-31T03:09:14;2.42;;;1.15;;
74912;SDS011;63878;55.624;37.304;2023-05-31T03:19:15;1.90;;;1.50;;
74912;SDS011;63878;55.624;37.304;2023-05-31T03:29:15;4.13;;;1.65;;
74912;SDS011;63878;55.624;37.304;2023-05-31T03:39:16;3.85;;;2.20;;
74912;SDS011;63878;55.624;37.304;2023-05-31T03:49:16;3.92;;;2.45;;
74912;SDS011;63878;55.624;37.304;2023-05-31T03:59:17;2.10;;;1.55;;
74912;SDS011;63878;55.624;37.304;2023-05-31T04:09:18;3.17;;;2.33;;
74912;SDS011;63878;55.624;37.304;2023-05-31T04:19:18;3.60;;;2.33;;
74912;SDS011;63878;55.624;37.304;2023-05-31T04:29:19;2.90;;;2.22;;
74912;SDS011;63878;55.624;37.304;2023-05-31T04:39:19;2.70;;;1.60;;
74912;SDS011;63878;55.624;37.304;2023-05-31T04:49:20;2.05;;;1.10;;
74912;SDS011;63878;55.624;37.304;2023-05-31T04:59:20;2.00;;;1.60;;
74912;SDS011;63878;55.624;37.304;2023-05-31T05:09:21;2.90;;;1.70;;
74912;SDS011;63878;55.624;37.304;2023-05-31T05:19:22;3.03;;;1.80;;
74912;SDS011;63878;55.624;37.304;2023-05-31T05:29:22;2.78;;;2.13;;
74912;SDS011;63878;55.624;37.304;2023-05-31T05:39:23;3.13;;;2.22;;
74912;SDS011;63878;55.624;37.304;2023-05-31T05:49:24;3.45;;;1.92;;
74912;SDS011;63878;55.624;37.304;2023-05-31T05:59:24;2.73;;;2.07;;
74912;SDS011;63878;55.624;37.304;2023-05-31T06:09:25;2.22;;;2.03;;
74912;SDS011;63878;55.624;37.304;2023-05-31T06:19:25;5.63;;;2.83;;
74912;SDS011;63878;55.624;37.304;2023-05-31T06:29:26;5.43;;;2.83;;
74912;SDS011;63878;55.624;37.304;2023-05-31T06:39:26;3.97;;;2.60;;
74912;SDS011;63878;55.624;37.304;2023-05-31T06:49:27;3.30;;;2.33;;
74912;SDS011;63878;55.624;37.304;2023-05-31T06:59:28;4.13;;;2.22;;
74912;SDS011;63878;55.624;37.304;2023-05-31T07:09:28;2.50;;;1.80;;
74912;SDS011;63878;55.624;37.304;2023-05-31T07:19:29;3.77;;;1.70;;
74912;SDS011;63878;55.624;37.304;2023-05-31T07:29:30;4.03;;;1.50;;
74912;SDS011;63878;55.624;37.304;2023-05-31T07:39:33;3.03;;;1.17;;
74912;SDS011;63878;55.624;37.304;2023-05-31T07:49:33;1.48;;;1.33;;
74912;SDS011;63878;55.624;37.304;2023-05-31T07:59:33;3.47;;;1.67;;
74912;SDS011;63878;55.624;37.304;2023-05-31T08:09:34;2.25;;;1.38;;
74912;SDS011;63878;55.624;37.304;2023-05-31T08:19:35;3.15;;;1.63;;
74912;SDS011;63878;55.624;37.304;2023-05-31T08:29:35;1.65;;;1.00;;
74912;SDS011;63878;55.624;37.304;2023-05-31T08:39:36;3.92;;;1.45;;
74912;SDS011;63878;55.624;37.304;2023-05-31T08:49:37;2.53;;;1.15;;
74912;SDS011;63878;55.624;37.304;2023-05-31T08:59:39;2.15;;;1.02;;
74912;SDS011;63878;55.624;37.304;2023-05-31T09:09:39;1.80;;;0.90;;
74912;SDS011;63878;55.624;37.304;2023-05-31T09:19:41;2.72;;;0.85;;
74912;SDS011;63878;55.624;37.304;2023-05-31T09:29:50;2.35;;;0.85;;
74912;SDS011;63878;55.624;37.304;2023-05-31T09:39:55;2.17;;;0.90;;
74912;SDS011;63878;55.624;37.304;2023-05-31T09:49:56;1.75;;;0.90;;
74912;SDS011;63878;55.624;37.304;2023-05-31T10:00:00;1.85;;;1.08;;
74912;SDS011;63878;55.624;37.304;2023-05-31T10:10:03;1.42;;;0.50;;
74912;SDS011;63878;55.624;37.304;2023-05-31T10:20:13;2.13;;;1.40;;
74912;SDS011;63878;55.624;37.304;2023-05-31T10:30:16;2.53;;;1.63;;
74912;SDS011;63878;55.624;37.304;2023-05-31T10:40:28;3.22;;;1.30;;
74912;SDS011;63878;55.624;37.304;2023-05-31T10:50:33;1.23;;;0.93;;
74912;SDS011;63878;55.624;37.304;2023-05-31T11:00:34;3.67;;;0.63;;
74912;SDS011;63878;55.624;37.304;2023-05-31T11:10:41;3.03;;;1.35;;
74912;SDS011;63878;55.624;37.304;2023-05-31T11:20:42;1.53;;;0.70;;
74912;SDS011;63878;55.624;37.304;2023-05-31T11:30:42;2.45;;;1.33;;
74912;SDS011;63878;55.624;37.304;2023-05-31T11:40:43;2.97;;;1.90;;
74912;SDS011;63878;55.624;37.304;2023-05-31T11:50:43;1.55;;;1.40;;
74912;SDS011;63878;55.624;37.304;2023-05-31T12:00:44;2.53;;;1.17;;
74912;SDS011;63878;55.624;37.304;2023-05-31T12:10:45;1.55;;;0.93;;
74912;SDS011;63878;55.624;37.304;2023-05-31T12:20:46;1.90;;;1.70;;
74912;SDS011;63878;55.624;37.304;2023-05-31T12:30:47;1.58;;;1.00;;
74912;SDS011;63878;55.624;37.304;2023-05-31T12:40:48;1.10;;;0.90;;
74912;SDS011;63878;55.624;37.304;2023-05-31T12:50:52;1.88;;;1.20;;
74912;SDS011;63878;55.624;37.304;2023-05-31T13:00:57;3.92;;;1.65;;
74912;SDS011;63878;55.624;37.304;2023-05-31T13:10:57;3.77;;;1.83;;
74912;SDS011;63878;55.624;37.304;2023-05-31T13:20:58;3.03;;;1.57;;
74912;SDS011;63878;55.624;37.304;2023-05-31T13:30:58;6.00;;;3.07;;
74912;SDS011;63878;55.624;37.304;2023-05-31T13:40:59;3.92;;;2.25;;
74912;SDS011;63878;55.624;37.304;2023-05-31T13:50:59;4.20;;;2.40;;
74912;SDS011;63878;55.624;37.304;2023-05-31T14:01:00;3.58;;;2.00;;
74912;SDS011;63878;55.624;37.304;2023-05-31T14:11:00;3.47;;;2.20;;
74912;SDS011;63878;55.624;37.304;2023-05-31T14:21:03;3.63;;;2.03;;
74912;SDS011;63878;55.624;37.304;2023-05-31T14:31:04;3.17;;;1.43;;
74912;SDS011;63878;55.624;37.304;2023-05-31T14:41:05;6.63;;;2.40;;
74912;SDS011;63878;55.624;37.304;2023-05-31T14:51:05;3.73;;;1.77;;
74912;SDS011;63878;55.624;37.304;2023-05-31T15:01:06;8.75;;;3.28;;
74912;SDS011;63878;55.624;37.304;2023-05-31T15:11:06;5.70;;;3.53;;
74912;SDS011;63878;55.624;37.304;2023-05-31T15:21:07;5.95;;;3.35;;
74912;SDS011;63878;55.624;37.304;2023-05-31T15:31:07;5.72;;;3.53;;
74912;SDS011;63878;55.624;37.304;2023-05-31T15:41:08;4.10;;;3.25;;
74912;SDS011;63878;55.624;37.304;2023-05-31T15:51:08;5.70;;;3.00;;
74912;SDS011;63878;55.624;37.304;2023-05-31T16:01:09;6.88;;;3.05;;
74912;SDS011;63878;55.624;37.304;2023-05-31T16:11:09;4.13;;;2.60;;
74912;SDS011;63878;55.624;37.304;2023-05-31T16:21:10;5.93;;;2.80;;
74912;SDS011;63878;55.624;37.304;2023-05-31T16:31:10;8.23;;;2.65;;
74912;SDS011;63878;55.624;37.304;2023-05-31T16:41:11;13.45;;;3.35;;
74912;SDS011;63878;55.624;37.304;2023-05-31T16:51:12;11.27;;;3.00;;
74912;SDS011;63878;55.624;37.304;2023-05-31T17:01:12;9.85;;;3.47;;
74912;SDS011;63878;55.624;37.304;2023-05-31T17:11:13;7.03;;;2.17;;
74912;SDS011;63878;55.624;37.304;2023-05-31T17:21:14;6.82;;;3.20;;
74912;SDS011;63878;55.624;37.304;2023-05-31T17:31:14;5.72;;;3.15;;
74912;SDS011;63878;55.624;37.304;2023-05-31T17:41:15;7.63;;;3.40;;
74912;SDS011;63878;55.624;37.304;2023-05-31T17:51:16;9.10;;;3.25;;
74912;SDS011;63878;55.624;37.304;2023-05-31T18:01:16;10.65;;;4.30;;
74912;SDS011;63878;55.624;37.304;2023-05-31T18:11:17;8.00;;;3.40;;
74912;SDS011;63878;55.624;37.304;2023-05-31T18:21:18;9.40;;;5.80;;
74912;SDS011;63878;55.624;37.304;2023-05-31T18:31:18;5.85;;;3.35;;
74912;SDS011;63878;55.624;37.304;2023-05-31T18:41:19;4.93;;;2.63;;
74912;SDS011;63878;55.624;37.304;2023-05-31T18:51:19;5.25;;;2.80;;
74912;SDS011;63878;55.624;37.304;2023-05-31T19:01:20;4.27;;;3.07;;
74912;SDS011;63878;55.624;37.304;2023-05-31T19:11:21;6.03;;;3.20;;
74912;SDS011;63878;55.624;37.304;2023-05-31T19:21:22;7.03;;;4.18;;
74912;SDS011;63878;55.624;37.304;2023-05-31T19:31:23;7.18;;;3.38;;
74912;SDS011;63878;55.624;37.304;2023-05-31T19:41:23;9.68;;;3.33;;
74912;SDS011;63878;55.624;37.304;2023-05-31T19:51:24;8.48;;;3.80;;
74912;SDS011;63878;55.624;37.304;2023-05-31T20:01:25;5.97;;;3.30;;
74912;SDS011;63878;55.624;37.304;2023-05-31T20:11:26;6.15;;;3.13;;
74912;SDS011;63878;55.624;37.304;2023-05-31T20:21:26;6.93;;;3.35;;
74912;SDS011;63878;55.624;37.304;2023-05-31T20:31:27;7.75;;;3.30;;
74912;SDS011;63878;55.624;37.304;2023-05-31T20:41:27;5.68;;;3.30;;
74912;SDS011;63878;55.624;37.304;2023-05-31T20:51:27;5.28;;;3.00;;
74912;SDS011;63878;55.624;37.304;2023-05-31T21:01:29;5.70;;;3.60;;
74912;SDS011;63878;55.624;37.304;2023-05-31T21:11:30;6.63;;;2.95;;
74912;SDS011;63878;55.624;37.304;2023-05-31T21:21:30;5.35;;;2.75;;
74912;SDS011;63878;55.624;37.304;2023-05-31T21:31:31;6.13;;;2.83;;
74912;SDS011;63878;55.624;37.304;2023-05-31T21:41:31;6.22;;;3.40;;
74912;SDS011;63878;55.624;37.304;2023-05-31T21:51:32;6.77;;;3.10;;
74912;SDS011;63878;55.624;37.304;2023-05-31T22:01:33;6.88;;;2.80;;
74912;SDS011;63878;55.624;37.304;2023-05-31T22:11:34;7.07;;;3.53;;
74912;SDS011;63878;55.624;37.304;2023-05-31T22:21:34;4.40;;;2.80;;
74912;SDS011;63878;55.624;37.304;2023-05-31T22:31:35;7.13;;;3.40;;
74912;SDS011;63878;55.624;37.304;2023-05-31T22:41:35;7.03;;;3.03;;
74912;SDS011;63878;55.624;37.304;2023-05-31T22:51:36;5.18;;;2.63;;
74912;SDS011;63878;55.624;37.304;2023-05-31T23:01:37;11.38;;;4.10;;
74912;SDS011;63878;55.624;37.304;2023-05-31T23:11:38;7.90;;;4.00;;
74912;SDS011;63878;55.624;37.304;2023-05-31T23:21:38;7.47;;;2.70;;
74912;SDS011;63878;55.624;37.304;2023-05-31T23:31:39;8.25;;;3.03;;
74912;SDS011;63878;55.624;37.304;2023-05-31T23:41:40;8.20;;;3.03;;
74912;SDS011;63878;55.624;37.304;2023-05-31T23:51:40;6.38;;;2.80;;
